European Seaway — MPDG3 — position and weather

sailwx.info

Track history (hours):
 
Tides and Currents Weather Stations Pressure Air Temp Water Temp Dewpoint Dewpoint Depression Visibility Wind Speed Wind Dir Waves Ship Positions

European Seaway

Operator: P & O Ferries

Last reported at 2016-Dec-04 23:33 UTC. Time now 2016-Dec-05 00:29 UTC.
Position N 50°58' E 001°52'.

Length 179 m; draft 6.1 m.

Type: Passenger vessel. MMSI: 232001040.

Date/timePositionNaut miles runAvg speedWind from/ knotsBaromVisibWave heightAir tempDewpointWater temp
2016-Dec-04 23:33N 50°58' E 001°52'0 0.0
2016-Dec-04 22:33N 50°58' E 001°52'0 0.0
2016-Dec-04 21:33N 50°58' E 001°52'0 0.0
2016-Dec-04 20:34N 50°58' E 001°52'0 0.0
2016-Dec-04 19:33N 50°58' E 001°52'0 0.0
2016-Dec-04 18:33N 50°58' E 001°52'0 0.0
2016-Dec-04 17:34N 50°58' E 001°52'0 0.0
2016-Dec-04 16:33N 50°58' E 001°52'0 0.0
2016-Dec-04 15:34N 50°58' E 001°52'0 0.0
2016-Dec-04 14:33N 50°58' E 001°52'0 0.0
2016-Dec-04 13:33N 50°58' E 001°52'0 0.0
2016-Dec-04 12:33N 50°58' E 001°52'0 0.0
2016-Dec-04 11:33N 50°58' E 001°52'0 0.0
2016-Dec-04 10:33N 50°58' E 001°52'0 0.0
2016-Dec-04 09:33N 50°58' E 001°52'0 0.0
2016-Dec-04 08:33N 50°58' E 001°52'0 0.0
2016-Dec-04 07:33N 50°58' E 001°52'0 0.0
2016-Dec-04 06:33N 50°58' E 001°52'0 0.0
2016-Dec-04 05:33N 50°58' E 001°52'0 0.0
2016-Dec-04 04:33N 50°58' E 001°52'0 0.0
2016-Dec-04 03:33N 50°58' E 001°52'0 0.0
2016-Dec-04 02:33N 50°58' E 001°52'0 0.0
2016-Dec-04 01:33N 50°58' E 001°52'0 0.0
2016-Dec-04 00:33N 50°58' E 001°52'0 0.0
2016-Dec-03 23:33N 50°58' E 001°52'0 0.0
2016-Dec-03 22:33N 50°58' E 001°52'0 0.0
2016-Dec-03 21:34N 50°58' E 001°52'0 0.0
2016-Dec-03 20:33N 50°58' E 001°52'5 5.2
2016-Dec-03 19:33N 50°58' E 001°44'1615.7
2016-Dec-03 18:33N 51°06' E 001°23'2 1.9
2016-Dec-03 17:32N 51°07' E 001°20'9 9.4
2016-Dec-03 16:34N 51°04' E 001°34'1312.8
2016-Dec-03 15:33N 50°58' E 001°52'0 0.0
2016-Dec-03 14:34N 50°58' E 001°52'1313.0
2016-Dec-03 13:33N 51°02' E 001°32'9 9.2
2016-Dec-03 12:33N 51°07' E 001°20'2 2.1
2016-Dec-03 11:33N 51°07' E 001°23'1817.7
2016-Dec-03 10:33N 50°58' E 001°48'2 2.4
2016-Dec-03 09:34N 50°58' E 001°52'0 0.1
2016-Dec-03 08:34N 50°58' E 001°52'0 0.0
2016-Dec-03 07:33N 50°58' E 001°52'0 0.0
2016-Dec-03 06:33N 50°58' E 001°52'0 0.0
2016-Dec-03 05:33N 50°58' E 001°52'0 0.0
2016-Dec-03 04:33N 50°58' E 001°52'0 0.0
2016-Dec-03 03:33N 50°58' E 001°52'0 0.0
2016-Dec-03 02:33N 50°58' E 001°52'0 0.0
2016-Dec-03 01:33N 50°58' E 001°52'0 0.0
2016-Dec-03 00:33N 50°58' E 001°52'0 0.0
2016-Dec-02 23:33N 50°58' E 001°52'0 0.0
2016-Dec-02 22:33N 50°58' E 001°52'0 0.0
2016-Dec-02 21:33N 50°58' E 001°52'0 0.0
2016-Dec-02 20:34N 50°58' E 001°52'0 0.2
2016-Dec-02 19:33N 50°58' E 001°52'1514.5
2016-Dec-02 18:33N 51°03' E 001°30'8 7.0
2016-Dec-02 17:28N 51°07' E 001°20'9 9.5
2016-Dec-02 16:34N 51°03' E 001°32'1312.9
2016-Dec-02 15:33N 50°58' E 001°51'1 1.1
2016-Dec-02 14:33N 50°58' E 001°49'1716.5
2016-Dec-02 13:33N 51°05' E 001°25'4 2.8
2016-Dec-02 12:06N 51°07' E 001°20'2 3.1
2016-Dec-02 11:34N 51°07' E 001°23'1717.4
2016-Dec-02 10:34N 50°58' E 001°46'3 3.3
2016-Dec-02 09:33N 50°58' E 001°52'0 0.1
2016-Dec-02 08:33N 50°58' E 001°52'0 0.0
2016-Dec-02 07:33N 50°58' E 001°52'0 0.0
2016-Dec-02 06:33N 50°58' E 001°52'0 0.0
2016-Dec-02 05:33N 50°58' E 001°52'0 0.0
2016-Dec-02 03:33N 50°58' E 001°52'0 0.0
2016-Dec-02 02:33N 50°58' E 001°52'0 0.0
2016-Dec-02 01:33N 50°58' E 001°52'0 0.0
2016-Dec-02 00:33N 50°58' E 001°52'0 0.0
2016-Dec-01 23:33N 50°58' E 001°52'0 0.0
2016-Dec-01 22:33N 50°58' E 001°52'0 0.0
2016-Dec-01 21:33N 50°58' E 001°52'0 0.0
2016-Dec-01 20:33N 50°58' E 001°52'1 1.4
2016-Dec-01 19:33N 50°58' E 001°50'1615.6
2016-Dec-01 18:33N 51°03' E 001°26'6 3.9
2016-Dec-01 17:06N 51°07' E 001°20'610.1
2016-Dec-01 16:33N 51°06' E 001°29'1616.0
2016-Dec-01 15:34N 50°58' E 001°51'0 0.1
2016-Dec-01 14:33N 50°58' E 001°51'1717.3
2016-Dec-01 13:34N 51°05' E 001°26'4 3.8
2016-Dec-01 12:25N 51°07' E 001°20'1 1.7
2016-Dec-01 11:33N 51°07' E 001°22'1716.9
2016-Dec-01 10:34N 50°58' E 001°45'4 4.1
2016-Dec-01 09:33N 50°58' E 001°52'0 0.1
2016-Dec-01 08:34N 50°58' E 001°52'0 0.0
2016-Dec-01 07:33N 50°58' E 001°52'0 0.0
2016-Dec-01 06:33N 50°58' E 001°52'0 0.0
2016-Dec-01 05:33N 50°58' E 001°52'0 0.0
2016-Dec-01 04:33N 50°58' E 001°52'0 0.0
2016-Dec-01 03:33N 50°58' E 001°52'0 0.0
2016-Dec-01 02:34N 50°58' E 001°52'0 0.0
2016-Dec-01 01:34N 50°58' E 001°52'0 0.0
2016-Dec-01 00:33N 50°58' E 001°52'0 0.0
2016-Nov-30 23:34N 50°58' E 001°52'0 0.0
2016-Nov-30 22:34N 50°58' E 001°52'0 0.0
2016-Nov-30 21:33N 50°58' E 001°52'0 0.0
2016-Nov-30 20:33N 50°58' E 001°52'2 2.4
2016-Nov-30 19:33N 50°58' E 001°48'1716.5
2016-Nov-30 18:33N 51°05' E 001°24'4 3.5
2016-Nov-30 17:33N 51°07' E 001°20'8 7.7
2016-Nov-30 16:33N 51°04' E 001°31'1413.8
2016-Nov-30 15:33N 50°58' E 001°51'0 0.0
2016-Nov-30 14:33N 50°58' E 001°51'1312.8
2016-Nov-30 13:33N 51°01' E 001°31'9 9.2
2016-Nov-30 12:33N 51°07' E 001°20'4 3.5
2016-Nov-30 11:33N 51°06' E 001°25'1716.8
2016-Nov-30 10:33N 50°58' E 001°49'2 1.8
2016-Nov-30 09:33N 50°58' E 001°52'0 0.1
2016-Nov-30 08:33N 50°58' E 001°52'0 0.0
2016-Nov-30 07:33N 50°58' E 001°52'0 0.0
2016-Nov-30 06:34N 50°58' E 001°52'0 0.0
2016-Nov-30 05:34N 50°58' E 001°52'0 0.0
2016-Nov-30 04:33N 50°58' E 001°52'0 0.0
2016-Nov-30 03:33N 50°58' E 001°52'0 0.0
2016-Nov-30 02:34N 50°58' E 001°52'0 0.0
2016-Nov-30 01:33N 50°58' E 001°52'0 0.0
2016-Nov-30 00:33N 50°58' E 001°52'0 0.0
2016-Nov-29 23:33N 50°58' E 001°52'0 0.0
2016-Nov-29 22:33N 50°58' E 001°52'0 0.0
2016-Nov-29 21:33N 50°58' E 001°52'0 0.0
2016-Nov-29 20:33N 50°58' E 001°52'3 2.8
2016-Nov-29 19:33N 50°58' E 001°47'1414.1
2016-Nov-29 18:33N 51°04' E 001°27'6 5.0
2016-Nov-29 17:28N 51°07' E 001°20'5 5.5
2016-Nov-29 16:34N 51°06' E 001°28'1616.1
2016-Nov-29 15:33N 50°58' E 001°50'1 0.5
2016-Nov-29 14:33N 50°58' E 001°51'1313.5
2016-Nov-29 13:33N 51°03' E 001°31'8 8.2
2016-Nov-29 12:33N 51°07' E 001°20'4 4.2
2016-Nov-29 11:33N 51°06' E 001°27'1716.8
2016-Nov-29 10:33N 50°58' E 001°50'1 1.1
2016-Nov-29 09:33N 50°58' E 001°52'0 0.0
2016-Nov-29 08:33N 50°58' E 001°52'0 0.0
2016-Nov-29 07:33N 50°58' E 001°52'0 0.0
2016-Nov-29 06:33N 50°58' E 001°52'0 0.0
2016-Nov-29 05:33N 50°58' E 001°52'0 0.0
2016-Nov-29 04:34N 50°58' E 001°52'0 0.0
2016-Nov-29 03:33N 50°58' E 001°52'0 0.0
2016-Nov-29 02:33N 50°58' E 001°52'0 0.0
2016-Nov-29 01:33N 50°58' E 001°52'0 0.0
2016-Nov-29 00:33N 50°58' E 001°52'0 0.0
2016-Nov-28 23:33N 50°58' E 001°52'0 0.0
2016-Nov-28 22:33N 50°58' E 001°52'0 0.0
2016-Nov-28 21:33N 50°58' E 001°52'0 0.0
2016-Nov-28 20:33N 50°58' E 001°52'7 7.1
2016-Nov-28 19:33N 50°58' E 001°40'1613.8
2016-Nov-28 18:25N 51°07' E 001°20'0 0.0
2016-Nov-28 17:33N 51°07' E 001°20'10 9.6
2016-Nov-28 16:34N 51°03' E 001°33'1212.5
2016-Nov-28 15:33N 50°58' E 001°52'0 0.0
2016-Nov-28 14:33N 50°58' E 001°52'0 0.0
2016-Nov-28 13:33N 50°58' E 001°52'0 0.0
2016-Nov-28 12:33N 50°58' E 001°52'0 0.0
2016-Nov-28 11:33N 50°58' E 001°52'0 0.0
2016-Nov-28 10:33N 50°58' E 001°52'0 0.0
2016-Nov-28 09:33N 50°58' E 001°52'0 0.0
2016-Nov-28 08:33N 50°58' E 001°52'0 0.0
2016-Nov-28 07:33N 50°58' E 001°52'0 0.0
2016-Nov-28 06:33N 50°58' E 001°52'0 0.0
2016-Nov-28 05:33N 50°58' E 001°52'0 0.0
2016-Nov-28 04:33N 50°58' E 001°52'0 0.0
2016-Nov-28 03:33N 50°58' E 001°52'0 0.0
2016-Nov-28 02:33N 50°58' E 001°52'0 0.0
2016-Nov-28 01:33N 50°58' E 001°52'0 0.0
2016-Nov-28 00:33N 50°58' E 001°52'0 0.0
2016-Nov-27 23:33N 50°58' E 001°52'0 0.0
2016-Nov-27 22:33N 50°58' E 001°52'0 0.0
2016-Nov-27 21:33N 50°58' E 001°52'0 0.0
2016-Nov-27 20:33N 50°58' E 001°52'0 0.0
2016-Nov-27 19:33N 50°58' E 001°52'0 0.0
2016-Nov-27 18:33N 50°58' E 001°52'0 0.2
2016-Nov-27 17:33N 50°58' E 001°52'0 0.0
2016-Nov-27 16:33N 50°58' E 001°52'0 0.0
2016-Nov-27 15:33N 50°58' E 001°52'0 0.0
2016-Nov-27 14:34N 50°58' E 001°52'0 0.0
2016-Nov-27 13:33N 50°58' E 001°52'0 0.0
2016-Nov-27 12:33N 50°58' E 001°52'0 0.0
2016-Nov-27 11:33N 50°58' E 001°52'0 0.0
2016-Nov-27 10:33N 50°58' E 001°52'0 0.0
2016-Nov-27 09:33N 50°58' E 001°52'0 0.0
2016-Nov-27 08:33N 50°58' E 001°52'0 0.0
2016-Nov-27 07:34N 50°58' E 001°52'0 0.0
2016-Nov-27 06:33N 50°58' E 001°52'0 0.0
2016-Nov-27 05:33N 50°58' E 001°52'0 0.0
2016-Nov-27 04:33N 50°58' E 001°52'0 0.0
2016-Nov-27 03:33N 50°58' E 001°52'0 0.0
2016-Nov-27 02:33N 50°58' E 001°52'0 0.0
2016-Nov-27 01:33N 50°58' E 001°52'0 0.0
2016-Nov-27 00:34N 50°58' E 001°52'0 0.0
2016-Nov-26 23:33N 50°58' E 001°52'0 0.0
2016-Nov-26 22:33N 50°58' E 001°52'0 0.0
2016-Nov-26 21:33N 50°58' E 001°52'0 0.0
2016-Nov-26 20:33N 50°58' E 001°52'1 0.6
2016-Nov-26 19:33N 50°58' E 001°51'1111.3
2016-Nov-26 18:33N 51°00' E 001°33'1110.9
2016-Nov-26 17:33N 51°07' E 001°20'8 8.5
2016-Nov-26 16:33N 51°06' E 001°33'1413.8
2016-Nov-26 15:33N 50°58' E 001°51'0 0.0
2016-Nov-26 14:34N 50°58' E 001°51'1313.3
2016-Nov-26 13:34N 51°02' E 001°31'9 8.4
2016-Nov-26 12:30N 51°07' E 001°20'2 2.2
2016-Nov-26 11:33N 51°07' E 001°23'1717.3
2016-Nov-26 10:33N 50°58' E 001°47'3 3.0
2016-Nov-26 09:34N 50°58' E 001°52'0 0.1
2016-Nov-26 08:33N 50°58' E 001°52'0 0.0
2016-Nov-26 07:33N 50°58' E 001°52'0 0.0
2016-Nov-26 06:34N 50°58' E 001°52'0 0.0
2016-Nov-26 05:33N 50°58' E 001°52'0 0.0
2016-Nov-26 04:33N 50°58' E 001°52'0 0.0
2016-Nov-26 03:33N 50°58' E 001°52'0 0.0
2016-Nov-26 02:33N 50°58' E 001°52'0 0.0
2016-Nov-26 01:33N 50°58' E 001°52'0 0.0
2016-Nov-26 00:33N 50°58' E 001°52'0 0.0
2016-Nov-25 23:33N 50°58' E 001°52'0 0.0
2016-Nov-25 22:33N 50°58' E 001°52'0 0.0
2016-Nov-25 21:33N 50°58' E 001°52'0 0.1
2016-Nov-25 20:33N 50°58' E 001°52'4 4.4
2016-Nov-25 19:33N 50°58' E 001°45'1616.0
2016-Nov-25 18:33N 51°06' E 001°23'2 2.1
2016-Nov-25 17:34N 51°07' E 001°20'3 3.4
2016-Nov-25 16:33N 51°07' E 001°25'1817.6
2016-Nov-25 15:33N 50°58' E 001°50'1 0.7
2016-Nov-25 14:33N 50°58' E 001°51'10 9.8
2016-Nov-25 13:33N 51°01' E 001°36'1212.0
2016-Nov-25 12:33N 51°07' E 001°20'1 0.8
2016-Nov-25 11:33N 51°07' E 001°21'1616.4
2016-Nov-25 10:34N 50°58' E 001°43'5 5.4
2016-Nov-25 09:33N 50°58' E 001°52'0 0.1
2016-Nov-25 08:33N 50°58' E 001°52'0 0.0
2016-Nov-25 07:33N 50°58' E 001°52'0 0.0
2016-Nov-25 06:33N 50°58' E 001°52'0 0.0
2016-Nov-25 05:33N 50°58' E 001°52'0 0.0
2016-Nov-25 04:33N 50°58' E 001°52'0 0.0
2016-Nov-25 03:33N 50°58' E 001°52'0 0.0
2016-Nov-25 02:33N 50°58' E 001°52'0 0.0
2016-Nov-25 01:33N 50°58' E 001°52'0 0.0
2016-Nov-25 00:33N 50°58' E 001°52'0 0.0
2016-Nov-24 23:33N 50°58' E 001°52'  
Track history (hours):
 
Tides and Currents Weather Stations Pressure Air Temp Water Temp Dewpoint Dewpoint Depression Visibility Wind Speed Wind Dir Waves Ship Positions

European Seaway

Operator: P & O Ferries

Last reported at 2016-Dec-04 23:33 UTC. Time now 2016-Dec-05 00:29 UTC.
Position N 50°58' E 001°52'.

Length 179 m; draft 6.1 m.

Type: Passenger vessel. MMSI: 232001040.

Date/timePositionNaut miles runAvg speedWind from/ knotsBaromVisibWave heightAir tempDewpointWater temp
2016-Dec-04 23:33N 50°58' E 001°52'0 0.0
2016-Dec-04 22:33N 50°58' E 001°52'0 0.0
2016-Dec-04 21:33N 50°58' E 001°52'0 0.0
2016-Dec-04 20:34N 50°58' E 001°52'0 0.0
2016-Dec-04 19:33N 50°58' E 001°52'0 0.0
2016-Dec-04 18:33N 50°58' E 001°52'0 0.0
2016-Dec-04 17:34N 50°58' E 001°52'0 0.0
2016-Dec-04 16:33N 50°58' E 001°52'0 0.0
2016-Dec-04 15:34N 50°58' E 001°52'0 0.0
2016-Dec-04 14:33N 50°58' E 001°52'0 0.0
2016-Dec-04 13:33N 50°58' E 001°52'0 0.0
2016-Dec-04 12:33N 50°58' E 001°52'0 0.0
2016-Dec-04 11:33N 50°58' E 001°52'0 0.0
2016-Dec-04 10:33N 50°58' E 001°52'0 0.0
2016-Dec-04 09:33N 50°58' E 001°52'0 0.0
2016-Dec-04 08:33N 50°58' E 001°52'0 0.0
2016-Dec-04 07:33N 50°58' E 001°52'0 0.0
2016-Dec-04 06:33N 50°58' E 001°52'0 0.0
2016-Dec-04 05:33N 50°58' E 001°52'0 0.0
2016-Dec-04 04:33N 50°58' E 001°52'0 0.0
2016-Dec-04 03:33N 50°58' E 001°52'0 0.0
2016-Dec-04 02:33N 50°58' E 001°52'0 0.0
2016-Dec-04 01:33N 50°58' E 001°52'0 0.0
2016-Dec-04 00:33N 50°58' E 001°52'0 0.0
2016-Dec-03 23:33N 50°58' E 001°52'0 0.0
2016-Dec-03 22:33N 50°58' E 001°52'0 0.0
2016-Dec-03 21:34N 50°58' E 001°52'0 0.0
2016-Dec-03 20:33N 50°58' E 001°52'5 5.2
2016-Dec-03 19:33N 50°58' E 001°44'1615.7
2016-Dec-03 18:33N 51°06' E 001°23'2 1.9
2016-Dec-03 17:32N 51°07' E 001°20'9 9.4
2016-Dec-03 16:34N 51°04' E 001°34'1312.8
2016-Dec-03 15:33N 50°58' E 001°52'0 0.0
2016-Dec-03 14:34N 50°58' E 001°52'1313.0
2016-Dec-03 13:33N 51°02' E 001°32'9 9.2
2016-Dec-03 12:33N 51°07' E 001°20'2 2.1
2016-Dec-03 11:33N 51°07' E 001°23'1817.7
2016-Dec-03 10:33N 50°58' E 001°48'2 2.4
2016-Dec-03 09:34N 50°58' E 001°52'0 0.1
2016-Dec-03 08:34N 50°58' E 001°52'0 0.0
2016-Dec-03 07:33N 50°58' E 001°52'0 0.0
2016-Dec-03 06:33N 50°58' E 001°52'0 0.0
2016-Dec-03 05:33N 50°58' E 001°52'0 0.0
2016-Dec-03 04:33N 50°58' E 001°52'0 0.0
2016-Dec-03 03:33N 50°58' E 001°52'0 0.0
2016-Dec-03 02:33N 50°58' E 001°52'0 0.0
2016-Dec-03 01:33N 50°58' E 001°52'0 0.0
2016-Dec-03 00:33N 50°58' E 001°52'0 0.0
2016-Dec-02 23:33N 50°58' E 001°52'0 0.0
2016-Dec-02 22:33N 50°58' E 001°52'0 0.0
2016-Dec-02 21:33N 50°58' E 001°52'0 0.0
2016-Dec-02 20:34N 50°58' E 001°52'0 0.2
2016-Dec-02 19:33N 50°58' E 001°52'1514.5
2016-Dec-02 18:33N 51°03' E 001°30'8 7.0
2016-Dec-02 17:28N 51°07' E 001°20'9 9.5
2016-Dec-02 16:34N 51°03' E 001°32'1312.9
2016-Dec-02 15:33N 50°58' E 001°51'1 1.1
2016-Dec-02 14:33N 50°58' E 001°49'1716.5
2016-Dec-02 13:33N 51°05' E 001°25'4 2.8
2016-Dec-02 12:06N 51°07' E 001°20'2 3.1
2016-Dec-02 11:34N 51°07' E 001°23'1717.4
2016-Dec-02 10:34N 50°58' E 001°46'3 3.3
2016-Dec-02 09:33N 50°58' E 001°52'0 0.1
2016-Dec-02 08:33N 50°58' E 001°52'0 0.0
2016-Dec-02 07:33N 50°58' E 001°52'0 0.0
2016-Dec-02 06:33N 50°58' E 001°52'0 0.0
2016-Dec-02 05:33N 50°58' E 001°52'0 0.0
2016-Dec-02 03:33N 50°58' E 001°52'0 0.0
2016-Dec-02 02:33N 50°58' E 001°52'0 0.0
2016-Dec-02 01:33N 50°58' E 001°52'0 0.0
2016-Dec-02 00:33N 50°58' E 001°52'0 0.0
2016-Dec-01 23:33N 50°58' E 001°52'0 0.0
2016-Dec-01 22:33N 50°58' E 001°52'0 0.0
2016-Dec-01 21:33N 50°58' E 001°52'0 0.0
2016-Dec-01 20:33N 50°58' E 001°52'1 1.4
2016-Dec-01 19:33N 50°58' E 001°50'1615.6
2016-Dec-01 18:33N 51°03' E 001°26'6 3.9
2016-Dec-01 17:06N 51°07' E 001°20'610.1
2016-Dec-01 16:33N 51°06' E 001°29'1616.0
2016-Dec-01 15:34N 50°58' E 001°51'0 0.1
2016-Dec-01 14:33N 50°58' E 001°51'1717.3
2016-Dec-01 13:34N 51°05' E 001°26'4 3.8
2016-Dec-01 12:25N 51°07' E 001°20'1 1.7
2016-Dec-01 11:33N 51°07' E 001°22'1716.9
2016-Dec-01 10:34N 50°58' E 001°45'4 4.1
2016-Dec-01 09:33N 50°58' E 001°52'0 0.1
2016-Dec-01 08:34N 50°58' E 001°52'0 0.0
2016-Dec-01 07:33N 50°58' E 001°52'0 0.0
2016-Dec-01 06:33N 50°58' E 001°52'0 0.0
2016-Dec-01 05:33N 50°58' E 001°52'0 0.0
2016-Dec-01 04:33N 50°58' E 001°52'0 0.0
2016-Dec-01 03:33N 50°58' E 001°52'0 0.0
2016-Dec-01 02:34N 50°58' E 001°52'0 0.0
2016-Dec-01 01:34N 50°58' E 001°52'0 0.0
2016-Dec-01 00:33N 50°58' E 001°52'0 0.0
2016-Nov-30 23:34N 50°58' E 001°52'0 0.0
2016-Nov-30 22:34N 50°58' E 001°52'0 0.0
2016-Nov-30 21:33N 50°58' E 001°52'0 0.0
2016-Nov-30 20:33N 50°58' E 001°52'2 2.4
2016-Nov-30 19:33N 50°58' E 001°48'1716.5
2016-Nov-30 18:33N 51°05' E 001°24'4 3.5
2016-Nov-30 17:33N 51°07' E 001°20'8 7.7
2016-Nov-30 16:33N 51°04' E 001°31'1413.8
2016-Nov-30 15:33N 50°58' E 001°51'0 0.0
2016-Nov-30 14:33N 50°58' E 001°51'1312.8
2016-Nov-30 13:33N 51°01' E 001°31'9 9.2
2016-Nov-30 12:33N 51°07' E 001°20'4 3.5
2016-Nov-30 11:33N 51°06' E 001°25'1716.8
2016-Nov-30 10:33N 50°58' E 001°49'2 1.8
2016-Nov-30 09:33N 50°58' E 001°52'0 0.1
2016-Nov-30 08:33N 50°58' E 001°52'0 0.0
2016-Nov-30 07:33N 50°58' E 001°52'0 0.0
2016-Nov-30 06:34N 50°58' E 001°52'0 0.0
2016-Nov-30 05:34N 50°58' E 001°52'0 0.0
2016-Nov-30 04:33N 50°58' E 001°52'0 0.0
2016-Nov-30 03:33N 50°58' E 001°52'0 0.0
2016-Nov-30 02:34N 50°58' E 001°52'0 0.0
2016-Nov-30 01:33N 50°58' E 001°52'0 0.0
2016-Nov-30 00:33N 50°58' E 001°52'0 0.0
2016-Nov-29 23:33N 50°58' E 001°52'0 0.0
2016-Nov-29 22:33N 50°58' E 001°52'0 0.0
2016-Nov-29 21:33N 50°58' E 001°52'0 0.0
2016-Nov-29 20:33N 50°58' E 001°52'3 2.8
2016-Nov-29 19:33N 50°58' E 001°47'1414.1
2016-Nov-29 18:33N 51°04' E 001°27'6 5.0
2016-Nov-29 17:28N 51°07' E 001°20'5 5.5
2016-Nov-29 16:34N 51°06' E 001°28'1616.1
2016-Nov-29 15:33N 50°58' E 001°50'1 0.5
2016-Nov-29 14:33N 50°58' E 001°51'1313.5
2016-Nov-29 13:33N 51°03' E 001°31'8 8.2
2016-Nov-29 12:33N 51°07' E 001°20'4 4.2
2016-Nov-29 11:33N 51°06' E 001°27'1716.8
2016-Nov-29 10:33N 50°58' E 001°50'1 1.1
2016-Nov-29 09:33N 50°58' E 001°52'0 0.0
2016-Nov-29 08:33N 50°58' E 001°52'0 0.0
2016-Nov-29 07:33N 50°58' E 001°52'0 0.0
2016-Nov-29 06:33N 50°58' E 001°52'0 0.0
2016-Nov-29 05:33N 50°58' E 001°52'0 0.0
2016-Nov-29 04:34N 50°58' E 001°52'0 0.0
2016-Nov-29 03:33N 50°58' E 001°52'0 0.0
2016-Nov-29 02:33N 50°58' E 001°52'0 0.0
2016-Nov-29 01:33N 50°58' E 001°52'0 0.0
2016-Nov-29 00:33N 50°58' E 001°52'0 0.0
2016-Nov-28 23:33N 50°58' E 001°52'0 0.0
2016-Nov-28 22:33N 50°58' E 001°52'0 0.0
2016-Nov-28 21:33N 50°58' E 001°52'0 0.0
2016-Nov-28 20:33N 50°58' E 001°52'7 7.1
2016-Nov-28 19:33N 50°58' E 001°40'1613.8
2016-Nov-28 18:25N 51°07' E 001°20'0 0.0
2016-Nov-28 17:33N 51°07' E 001°20'10 9.6
2016-Nov-28 16:34N 51°03' E 001°33'1212.5
2016-Nov-28 15:33N 50°58' E 001°52'0 0.0
2016-Nov-28 14:33N 50°58' E 001°52'0 0.0
2016-Nov-28 13:33N 50°58' E 001°52'0 0.0
2016-Nov-28 12:33N 50°58' E 001°52'0 0.0
2016-Nov-28 11:33N 50°58' E 001°52'0 0.0
2016-Nov-28 10:33N 50°58' E 001°52'0 0.0
2016-Nov-28 09:33N 50°58' E 001°52'0 0.0
2016-Nov-28 08:33N 50°58' E 001°52'0 0.0
2016-Nov-28 07:33N 50°58' E 001°52'0 0.0
2016-Nov-28 06:33N 50°58' E 001°52'0 0.0
2016-Nov-28 05:33N 50°58' E 001°52'0 0.0
2016-Nov-28 04:33N 50°58' E 001°52'0 0.0
2016-Nov-28 03:33N 50°58' E 001°52'0 0.0
2016-Nov-28 02:33N 50°58' E 001°52'0 0.0
2016-Nov-28 01:33N 50°58' E 001°52'0 0.0
2016-Nov-28 00:33N 50°58' E 001°52'0 0.0
2016-Nov-27 23:33N 50°58' E 001°52'0 0.0
2016-Nov-27 22:33N 50°58' E 001°52'0 0.0
2016-Nov-27 21:33N 50°58' E 001°52'0 0.0
2016-Nov-27 20:33N 50°58' E 001°52'0 0.0
2016-Nov-27 19:33N 50°58' E 001°52'0 0.0
2016-Nov-27 18:33N 50°58' E 001°52'0 0.2
2016-Nov-27 17:33N 50°58' E 001°52'0 0.0
2016-Nov-27 16:33N 50°58' E 001°52'0 0.0
2016-Nov-27 15:33N 50°58' E 001°52'0 0.0
2016-Nov-27 14:34N 50°58' E 001°52'0 0.0
2016-Nov-27 13:33N 50°58' E 001°52'0 0.0
2016-Nov-27 12:33N 50°58' E 001°52'0 0.0
2016-Nov-27 11:33N 50°58' E 001°52'0 0.0
2016-Nov-27 10:33N 50°58' E 001°52'0 0.0
2016-Nov-27 09:33N 50°58' E 001°52'0 0.0
2016-Nov-27 08:33N 50°58' E 001°52'0 0.0
2016-Nov-27 07:34N 50°58' E 001°52'0 0.0
2016-Nov-27 06:33N 50°58' E 001°52'0 0.0
2016-Nov-27 05:33N 50°58' E 001°52'0 0.0
2016-Nov-27 04:33N 50°58' E 001°52'0 0.0
2016-Nov-27 03:33N 50°58' E 001°52'0 0.0
2016-Nov-27 02:33N 50°58' E 001°52'0 0.0
2016-Nov-27 01:33N 50°58' E 001°52'0 0.0
2016-Nov-27 00:34N 50°58' E 001°52'0 0.0
2016-Nov-26 23:33N 50°58' E 001°52'0 0.0
2016-Nov-26 22:33N 50°58' E 001°52'0 0.0
2016-Nov-26 21:33N 50°58' E 001°52'0 0.0
2016-Nov-26 20:33N 50°58' E 001°52'1 0.6
2016-Nov-26 19:33N 50°58' E 001°51'1111.3
2016-Nov-26 18:33N 51°00' E 001°33'1110.9
2016-Nov-26 17:33N 51°07' E 001°20'8 8.5
2016-Nov-26 16:33N 51°06' E 001°33'1413.8
2016-Nov-26 15:33N 50°58' E 001°51'0 0.0
2016-Nov-26 14:34N 50°58' E 001°51'1313.3
2016-Nov-26 13:34N 51°02' E 001°31'9 8.4
2016-Nov-26 12:30N 51°07' E 001°20'2 2.2
2016-Nov-26 11:33N 51°07' E 001°23'1717.3
2016-Nov-26 10:33N 50°58' E 001°47'3 3.0
2016-Nov-26 09:34N 50°58' E 001°52'0 0.1
2016-Nov-26 08:33N 50°58' E 001°52'0 0.0
2016-Nov-26 07:33N 50°58' E 001°52'0 0.0
2016-Nov-26 06:34N 50°58' E 001°52'0 0.0
2016-Nov-26 05:33N 50°58' E 001°52'0 0.0
2016-Nov-26 04:33N 50°58' E 001°52'0 0.0
2016-Nov-26 03:33N 50°58' E 001°52'0 0.0
2016-Nov-26 02:33N 50°58' E 001°52'0 0.0
2016-Nov-26 01:33N 50°58' E 001°52'0 0.0
2016-Nov-26 00:33N 50°58' E 001°52'0 0.0
2016-Nov-25 23:33N 50°58' E 001°52'0 0.0
2016-Nov-25 22:33N 50°58' E 001°52'0 0.0
2016-Nov-25 21:33N 50°58' E 001°52'0 0.1
2016-Nov-25 20:33N 50°58' E 001°52'4 4.4
2016-Nov-25 19:33N 50°58' E 001°45'1616.0
2016-Nov-25 18:33N 51°06' E 001°23'2 2.1
2016-Nov-25 17:34N 51°07' E 001°20'3 3.4
2016-Nov-25 16:33N 51°07' E 001°25'1817.6
2016-Nov-25 15:33N 50°58' E 001°50'1 0.7
2016-Nov-25 14:33N 50°58' E 001°51'10 9.8
2016-Nov-25 13:33N 51°01' E 001°36'1212.0
2016-Nov-25 12:33N 51°07' E 001°20'1 0.8
2016-Nov-25 11:33N 51°07' E 001°21'1616.4
2016-Nov-25 10:34N 50°58' E 001°43'5 5.4
2016-Nov-25 09:33N 50°58' E 001°52'0 0.1
2016-Nov-25 08:33N 50°58' E 001°52'0 0.0
2016-Nov-25 07:33N 50°58' E 001°52'0 0.0
2016-Nov-25 06:33N 50°58' E 001°52'0 0.0
2016-Nov-25 05:33N 50°58' E 001°52'0 0.0
2016-Nov-25 04:33N 50°58' E 001°52'0 0.0
2016-Nov-25 03:33N 50°58' E 001°52'0 0.0
2016-Nov-25 02:33N 50°58' E 001°52'0 0.0
2016-Nov-25 01:33N 50°58' E 001°52'0 0.0
2016-Nov-25 00:33N 50°58' E 001°52'0 0.0
2016-Nov-24 23:33N 50°58' E 001°52'  

Dump ship's entire track history